Time;durP1;ratioP1;P1;durP2;ratioP2;P2;SDS_P1;SDS_P2;PMS_P1;PMS_P2;Temp;Humidity;BMP_temperature;BMP_pressure;BME280_temperature;BME280_humidity;BME280_pressure;Samples;Min_cycle;Max_cycle;Signal;HPM_P1;HPM_P2
2022/01/28 00:00:03;;;;;;;;;;;-2.30;78.40;;;;;;5021324;28;91981;-44
2022/01/28 00:02:50;;;;;;;;;;;-2.30;78.40;;;;;;5021146;28;94074;-44
2022/01/28 00:05:21;;;;;;;;;;;-2.30;78.60;;;;;;5020446;28;94188;-44
2022/01/28 00:07:47;;;;;;;;;;;-2.40;78.30;;;;;;5021050;28;92055;-44
2022/01/28 00:10:13;;;;;;;;;;;-2.40;78.60;;;;;;5023854;28;93903;-45
2022/01/28 00:12:54;;;;;;;;;;;-2.40;78.40;;;;;;5020790;28;92117;-45
2022/01/28 00:15:30;;;;;;;;;;;-2.40;78.70;;;;;;5020992;28;93781;-45
2022/01/28 00:18:30;;;;;;;;;;;-2.40;78.50;;;;;;5019358;28;94994;-44
2022/01/28 00:36:41;;;;;;;;;;;-2.40;78.60;;;;;;5019774;28;92057;-44
2022/01/28 00:39:36;;;;;;;;;;;-2.50;78.40;;;;;;5020003;28;92993;-45
2022/01/28 00:42:02;;;;;;;;;;;-2.50;78.20;;;;;;5020079;28;92211;-44
2022/01/28 00:44:28;;;;;;;;;;;-2.50;78.20;;;;;;5019793;28;94709;-44
2022/01/28 00:46:54;;;;;;;;;;;-2.50;78.40;;;;;;5019730;28;94698;-45
2022/01/28 00:49:19;;;;;;;;;;;-2.50;78.30;;;;;;5020074;28;92266;-45
2022/01/28 00:51:45;;;;;;;;;;;-2.50;78.70;;;;;;5020580;28;94094;-45
2022/01/28 00:54:10;;;;;;;;;;;-2.50;78.60;;;;;;5019710;28;94380;-45
2022/01/28 00:56:36;;;;;;;;;;;-2.50;78.70;;;;;;5023074;28;92059;-45
2022/01/28 00:59:02;;;;;;;;;;;-2.60;78.50;;;;;;5019589;28;94545;-45
2022/01/28 01:01:29;;;;;;;;;;;-2.60;78.40;;;;;;5020578;28;91337;-45
2022/01/28 01:03:59;;;;;;;;;;;-2.60;78.60;;;;;;5020038;28;92958;-44
2022/01/28 01:06:24;;;;;;;;;;;-2.50;78.30;;;;;;5019589;28;94442;-45
2022/01/28 01:08:50;;;;;;;;;;;-2.50;78.30;;;;;;5019465;28;93132;-45
2022/01/28 01:11:19;;;;;;;;;;;-2.60;78.40;;;;;;5020041;28;94678;-44
2022/01/28 01:13:45;;;;;;;;;;;-2.60;78.40;;;;;;5019552;28;93690;-45
2022/01/28 01:16:13;;;;;;;;;;;-2.60;78.40;;;;;;5023075;28;92197;-45
2022/01/28 01:18:52;;;;;;;;;;;-2.60;78.40;;;;;;5019496;28;95016;-45
2022/01/28 01:21:22;;;;;;;;;;;-2.60;78.10;;;;;;5019939;28;92100;-45
2022/01/28 01:23:54;;;;;;;;;;;-2.60;78.30;;;;;;5020106;28;93917;-45
2022/01/28 01:26:27;;;;;;;;;;;-2.60;78.40;;;;;;5018567;28;95697;-44
2022/01/28 01:28:53;;;;;;;;;;;-2.60;78.30;;;;;;5019878;28;92074;-44
2022/01/28 01:31:19;;;;;;;;;;;-2.60;78.40;;;;;;5019999;28;93944;-44
2022/01/28 01:34:05;;;;;;;;;;;-2.60;78.40;;;;;;5018441;28;95212;-44
2022/01/28 01:36:31;;;;;;;;;;;-2.60;78.30;;;;;;5019775;28;91947;-45
2022/01/28 01:38:56;;;;;;;;;;;-2.60;78.50;;;;;;5023977;28;93952;-44
2022/01/28 01:41:32;;;;;;;;;;;-2.60;78.30;;;;;;5022501;28;92159;-45
2022/01/28 01:44:08;;;;;;;;;;;-2.60;78.10;;;;;;5023636;28;93940;-44
2022/01/28 01:52:05;;;;;;;;;;;-2.70;78.30;;;;;;5023725;28;91658;-45
2022/01/28 01:54:35;;;;;;;;;;;-2.70;78.20;;;;;;5022754;28;94656;-45
2022/01/28 01:57:01;;;;;;;;;;;-2.70;78.20;;;;;;5022925;28;92039;-45
2022/01/28 01:59:27;;;;;;;;;;;-2.70;78.00;;;;;;5022311;28;94009;-45
2022/01/28 02:01:52;;;;;;;;;;;-2.70;78.10;;;;;;5025392;28;94451;-45
2022/01/28 02:04:18;;;;;;;;;;;-2.70;78.10;;;;;;5022912;28;93782;-45
2022/01/28 02:06:44;;;;;;;;;;;-2.70;78.10;;;;;;5022495;28;94792;-45
2022/01/28 02:09:09;;;;;;;;;;;-2.70;78.10;;;;;;5022960;28;92145;-45
2022/01/28 02:11:35;;;;;;;;;;;-2.80;78.20;;;;;;5022678;28;93967;-45
2022/01/28 02:14:02;;;;;;;;;;;-2.80;78.00;;;;;;5022090;28;94778;-45
2022/01/28 02:16:28;;;;;;;;;;;-2.80;78.10;;;;;;5023192;28;91434;-45
2022/01/28 02:18:57;;;;;;;;;;;-2.80;77.90;;;;;;5022556;28;93006;-45
2022/01/28 02:21:23;;;;;;;;;;;-2.80;77.90;;;;;;5021902;28;94408;-45
2022/01/28 02:23:53;;;;;;;;;;;-2.80;78.00;;;;;;5024985;28;93071;-45
2022/01/28 02:26:19;;;;;;;;;;;-2.80;78.00;;;;;;5022097;28;94766;-45
2022/01/28 02:28:49;;;;;;;;;;;-2.80;77.90;;;;;;5022428;28;92231;-46
2022/01/28 02:31:20;;;;;;;;;;;-2.80;77.90;;;;;;5022334;28;93830;-45
2022/01/28 02:33:46;;;;;;;;;;;-2.90;77.70;;;;;;5021668;28;95056;-45
2022/01/28 02:36:12;;;;;;;;;;;-2.90;77.80;;;;;;5022373;28;92375;-45
2022/01/28 02:38:38;;;;;;;;;;;-2.90;77.70;;;;;;5022387;28;93741;-45
2022/01/28 02:41:05;;;;;;;;;;;-2.80;77.80;;;;;;5021694;28;94136;-45
2022/01/28 02:43:45;;;;;;;;;;;-2.90;77.60;;;;;;5022445;28;92192;-45
2022/01/28 02:46:14;;;;;;;;;;;-2.90;77.70;;;;;;5024890;28;93747;-45
2022/01/28 02:48:50;;;;;;;;;;;-2.90;77.70;;;;;;5020568;28;92885;-45
2022/01/28 02:51:19;;;;;;;;;;;-2.90;77.70;;;;;;5022460;28;94728;-45
2022/01/28 02:53:52;;;;;;;;;;;-2.90;77.60;;;;;;5021602;28;94714;-46
2022/01/28 02:56:31;;;;;;;;;;;-3.00;77.80;;;;;;5022100;28;91967;-45
2022/01/28 02:58:58;;;;;;;;;;;-3.00;77.60;;;;;;5021663;28;93857;-45
2022/01/28 03:01:23;;;;;;;;;;;-3.00;77.70;;;;;;5021345;28;94402;-46
2022/01/28 03:03:49;;;;;;;;;;;-3.00;77.90;;;;;;5022022;28;91891;-45
2022/01/28 03:06:16;;;;;;;;;;;-3.00;77.80;;;;;;5024841;28;93693;-46
2022/01/28 03:08:47;;;;;;;;;;;-3.00;78.00;;;;;;5021859;28;92206;-45
2022/01/28 03:14:02;;;;;;;;;;;-3.00;77.90;;;;;;5018307;28;94004;-45
2022/01/28 03:16:31;;;;;;;;;;;-3.00;77.80;;;;;;5021938;28;91887;-45
2022/01/28 03:19:13;;;;;;;;;;;-3.10;77.70;;;;;;5021741;28;93875;-45
2022/01/28 03:21:42;;;;;;;;;;;-3.10;77.90;;;;;;5021266;28;94486;-45
2022/01/28 03:24:10;;;;;;;;;;;-3.10;77.70;;;;;;5021270;28;92061;-46
2022/01/28 03:26:35;;;;;;;;;;;-3.10;77.80;;;;;;5021542;28;94110;-44
2022/01/28 03:29:01;;;;;;;;;;;-3.10;77.80;;;;;;5024198;28;94735;-45
2022/01/28 03:31:27;;;;;;;;;;;-3.10;77.70;;;;;;5022100;28;94092;-46
2022/01/28 03:33:52;;;;;;;;;;;-3.10;77.50;;;;;;5020990;28;94282;-45
2022/01/28 03:36:18;;;;;;;;;;;-3.10;77.60;;;;;;5021350;28;92145;-45
2022/01/28 03:38:47;;;;;;;;;;;-3.10;77.70;;;;;;5020663;28;93794;-45
2022/01/28 03:41:16;;;;;;;;;;;-3.10;77.70;;;;;;5020310;28;94345;-45
2022/01/28 03:43:45;;;;;;;;;;;-3.10;77.60;;;;;;5021218;28;92265;-45
2022/01/28 03:46:11;;;;;;;;;;;-3.20;77.50;;;;;;5021448;28;94136;-45
2022/01/28 03:48:37;;;;;;;;;;;-3.20;77.70;;;;;;5020622;28;94692;-45
2022/01/28 03:51:02;;;;;;;;;;;-3.10;77.60;;;;;;5024151;28;92216;-45
2022/01/28 03:53:28;;;;;;;;;;;-3.20;77.60;;;;;;5020777;28;94477;-45
2022/01/28 03:55:57;;;;;;;;;;;-3.20;77.40;;;;;;5021711;28;91453;-45
2022/01/28 03:58:22;;;;;;;;;;;-3.20;77.50;;;;;;5021278;28;92183;-45
2022/01/28 04:00:48;;;;;;;;;;;-3.20;77.60;;;;;;5019908;28;94750;-45
2022/01/28 04:11:31;;;;;;;;;;;-3.20;77.40;;;;;;5021162;28;91751;-45
2022/01/28 04:13:59;;;;;;;;;;;-3.30;77.60;;;;;;5023519;28;93673;-44
2022/01/28 04:19:13;;;;;;;;;;;-3.30;77.60;;;;;;5009590;28;92264;-45
2022/01/28 04:21:39;;;;;;;;;;;-3.30;77.40;;;;;;5020742;28;93023;-45
2022/01/28 04:24:04;;;;;;;;;;;-3.30;77.40;;;;;;5020698;28;92151;-45
2022/01/28 04:26:30;;;;;;;;;;;-3.30;77.50;;;;;;5020790;28;93696;-45
2022/01/28 04:28:55;;;;;;;;;;;-3.30;77.60;;;;;;5019607;28;96008;-45
2022/01/28 04:31:21;;;;;;;;;;;-3.30;77.40;;;;;;5020865;28;92147;-45
2022/01/28 04:33:48;;;;;;;;;;;-3.40;77.50;;;;;;5020531;28;93707;-45
2022/01/28 04:36:16;;;;;;;;;;;-3.30;77.90;;;;;;5022973;28;94377;-45
2022/01/28 04:38:58;;;;;;;;;;;-3.30;77.40;;;;;;5020432;28;93906;-45
2022/01/28 04:44:25;;;;;;;;;;;-3.30;77.30;;;;;;4999786;28;92074;-45
2022/01/28 04:47:20;;;;;;;;;;;-3.40;77.40;;;;;;5020886;28;93954;-45
2022/01/28 04:55:02;;;;;;;;;;;-3.40;77.30;;;;;;5018163;28;92839;-45
2022/01/28 05:00:30;;;;;;;;;;;-3.50;77.40;;;;;;5023309;28;92003;-45
2022/01/28 05:03:24;;;;;;;;;;;-3.50;77.30;;;;;;5019865;28;94694;-45
2022/01/28 05:24:44;;;;;;;;;;;-3.50;77.30;;;;;;5019740;28;92297;-45
2022/01/28 05:29:24;;;;;;;;;;;-3.60;77.20;;;;;;5019989;28;92329;-45
2022/01/28 05:31:50;;;;;;;;;;;-3.60;77.30;;;;;;5019361;28;94991;-46
2022/01/28 05:34:15;;;;;;;;;;;-3.70;77.30;;;;;;5019908;28;92156;-45
2022/01/28 05:36:41;;;;;;;;;;;-3.60;77.50;;;;;;5019801;28;94012;-45
2022/01/28 05:39:07;;;;;;;;;;;-3.70;77.20;;;;;;5019578;28;92747;-45
2022/01/28 05:41:33;;;;;;;;;;;-3.60;77.20;;;;;;5018862;28;92136;-45
2022/01/28 05:44:00;;;;;;;;;;;-3.70;77.30;;;;;;5021989;28;93910;-45
2022/01/28 05:46:28;;;;;;;;;;;-3.70;77.40;;;;;;5019051;28;93071;-45
2022/01/28 05:48:54;;;;;;;;;;;-3.70;77.40;;;;;;5019478;28;94721;-45
2022/01/28 05:51:19;;;;;;;;;;;-3.70;77.20;;;;;;5018917;28;94507;-45
2022/01/28 05:53:45;;;;;;;;;;;-3.70;77.20;;;;;;5019386;28;92125;-45
2022/01/28 05:56:10;;;;;;;;;;;-3.70;77.40;;;;;;5019464;28;94575;-45
2022/01/28 05:58:36;;;;;;;;;;;-3.70;77.30;;;;;;5018961;28;93213;-45
2022/01/28 06:01:01;;;;;;;;;;;-3.70;77.20;;;;;;5019213;28;92235;-45
2022/01/28 06:03:27;;;;;;;;;;;-3.70;77.30;;;;;;5019757;28;93800;-45
2022/01/28 06:05:52;;;;;;;;;;;-3.70;77.40;;;;;;5020535;28;96346;-45
2022/01/28 06:08:18;;;;;;;;;;;-3.70;77.10;;;;;;5019389;28;93838;-45
2022/01/28 06:10:44;;;;;;;;;;;-3.80;77.10;;;;;;5018155;28;95290;-45
2022/01/28 06:13:11;;;;;;;;;;;-3.80;77.10;;;;;;5019338;28;92332;-45
2022/01/28 06:15:40;;;;;;;;;;;-3.70;77.00;;;;;;5019270;28;94068;-45
2022/01/28 06:18:06;;;;;;;;;;;-3.70;77.00;;;;;;5018651;28;93385;-45
2022/01/28 06:20:32;;;;;;;;;;;-3.70;76.90;;;;;;5019040;28;92260;-44
2022/01/28 06:22:57;;;;;;;;;;;-3.70;77.00;;;;;;5019243;28;94258;-45
2022/01/28 06:25:23;;;;;;;;;;;-3.70;76.90;;;;;;5021068;28;94517;-44
2022/01/28 06:27:48;;;;;;;;;;;-3.80;77.00;;;;;;5025818;28;91522;-44
2022/01/28 06:30:16;;;;;;;;;;;-3.80;77.00;;;;;;5022135;28;94597;-44
2022/01/28 06:32:42;;;;;;;;;;;-3.80;77.00;;;;;;5022404;28;92099;-45
2022/01/28 06:35:08;;;;;;;;;;;-3.80;77.00;;;;;;5021872;28;93844;-44
2022/01/28 06:37:34;;;;;;;;;;;-3.80;76.90;;;;;;5021777;28;94368;-44
2022/01/28 06:40:00;;;;;;;;;;;-3.80;76.80;;;;;;5022259;28;92199;-45
2022/01/28 06:42:25;;;;;;;;;;;-3.80;76.90;;;;;;5022278;28;93986;-44
2022/01/28 06:44:51;;;;;;;;;;;-3.80;76.80;;;;;;5021804;28;94471;-44
2022/01/28 06:47:16;;;;;;;;;;;-3.90;77.00;;;;;;5022412;28;91891;-44
2022/01/28 06:49:42;;;;;;;;;;;-3.80;77.10;;;;;;5025024;28;92804;-44
2022/01/28 06:52:07;;;;;;;;;;;-3.80;76.90;;;;;;5022683;28;91332;-44
2022/01/28 06:54:33;;;;;;;;;;;-3.80;76.80;;;;;;5022141;28;93415;-45
2022/01/28 06:56:59;;;;;;;;;;;-3.90;76.90;;;;;;5021633;28;94019;-44
2022/01/28 06:59:24;;;;;;;;;;;-3.80;76.80;;;;;;5020959;28;93177;-45
2022/01/28 07:01:50;;;;;;;;;;;-3.90;76.80;;;;;;5021960;28;94786;-44
2022/01/28 07:04:15;;;;;;;;;;;-3.90;76.90;;;;;;5021509;28;93443;-44
2022/01/28 07:06:41;;;;;;;;;;;-3.80;77.00;;;;;;5021977;28;92232;-45
2022/01/28 07:09:08;;;;;;;;;;;-3.90;76.80;;;;;;5021928;28;93301;-44
2022/01/28 07:11:33;;;;;;;;;;;-3.90;76.80;;;;;;5024338;28;94471;-44
2022/01/28 07:13:59;;;;;;;;;;;-3.90;77.00;;;;;;5021746;28;93611;-45
2022/01/28 07:16:24;;;;;;;;;;;-3.90;76.90;;;;;;5021834;28;93199;-44
2022/01/28 07:18:50;;;;;;;;;;;-3.90;76.90;;;;;;5022351;28;92113;-44
2022/01/28 07:21:15;;;;;;;;;;;-3.90;76.90;;;;;;5021750;28;92903;-44
2022/01/28 07:23:41;;;;;;;;;;;-3.90;77.10;;;;;;5020414;28;95230;-44
2022/01/28 07:26:06;;;;;;;;;;;-4.00;76.90;;;;;;5021580;28;92198;-44
2022/01/28 07:28:34;;;;;;;;;;;-4.00;77.10;;;;;;5021484;28;93271;-44
2022/01/28 07:31:00;;;;;;;;;;;-4.00;77.10;;;;;;5024022;28;94901;-45
2022/01/28 07:33:25;;;;;;;;;;;-4.00;77.10;;;;;;5021516;28;93742;-45
2022/01/28 07:35:51;;;;;;;;;;;-4.00;77.00;;;;;;5019898;28;94693;-44
2022/01/28 07:38:16;;;;;;;;;;;-4.00;77.00;;;;;;5021202;28;92193;-44
2022/01/28 07:40:42;;;;;;;;;;;-3.90;77.00;;;;;;5021170;28;93957;-44
2022/01/28 07:43:07;;;;;;;;;;;-4.00;76.90;;;;;;5020649;28;94758;-44
2022/01/28 07:45:33;;;;;;;;;;;-4.00;77.00;;;;;;5021381;28;92255;-44
2022/01/28 07:47:58;;;;;;;;;;;-4.10;77.20;;;;;;5020670;28;94266;-45
2022/01/28 07:50:24;;;;;;;;;;;-4.10;77.40;;;;;;5020806;28;93181;-44
2022/01/28 07:52:49;;;;;;;;;;;-4.00;77.60;;;;;;5024372;28;92212;-44
2022/01/28 07:55:15;;;;;;;;;;;-4.10;77.50;;;;;;5021126;28;92197;-44
2022/01/28 07:57:41;;;;;;;;;;;-4.20;77.70;;;;;;5021066;28;92204;-44
2022/01/28 08:00:08;;;;;;;;;;;-4.20;77.80;;;;;;5021052;28;94218;-44
2022/01/28 08:02:34;;;;;;;;;;;-4.10;77.70;;;;;;5020599;28;94527;-44
2022/01/28 08:05:00;;;;;;;;;;;-4.20;77.70;;;;;;5021649;28;91381;-45
2022/01/28 08:07:25;;;;;;;;;;;-4.10;77.80;;;;;;5021071;28;93040;-44
2022/01/28 08:09:51;;;;;;;;;;;-4.20;77.80;;;;;;5020339;28;94036;-44
2022/01/28 08:12:16;;;;;;;;;;;-4.20;78.20;;;;;;5020198;28;93090;-45
2022/01/28 08:14:42;;;;;;;;;;;-4.20;77.90;;;;;;5023400;28;94864;-45
2022/01/28 08:17:08;;;;;;;;;;;-4.20;77.80;;;;;;5020743;28;92166;-44
2022/01/28 08:19:33;;;;;;;;;;;-4.20;77.90;;;;;;5020722;28;94411;-45
2022/01/28 08:21:59;;;;;;;;;;;-4.20;78.00;;;;;;5020182;28;94525;-45
2022/01/28 08:24:25;;;;;;;;;;;-4.30;78.30;;;;;;5021012;28;92062;-44
2022/01/28 08:26:50;;;;;;;;;;;-4.20;78.30;;;;;;5020843;28;94109;-46
2022/01/28 08:29:16;;;;;;;;;;;-4.30;78.20;;;;;;5020441;28;93859;-44
2022/01/28 08:31:42;;;;;;;;;;;-4.30;78.30;;;;;;5020698;28;92158;-44
2022/01/28 08:34:08;;;;;;;;;;;-4.30;78.70;;;;;;5020702;28;93567;-45
2022/01/28 08:36:34;;;;;;;;;;;-4.30;78.80;;;;;;5022465;28;95437;-44
2022/01/28 08:39:00;;;;;;;;;;;-4.40;78.80;;;;;;5020385;28;94755;-45
2022/01/28 08:41:26;;;;;;;;;;;-4.40;79.00;;;;;;5019607;28;94374;-45
2022/01/28 08:43:51;;;;;;;;;;;-4.30;78.90;;;;;;5020204;28;92135;-44
2022/01/28 08:46:17;;;;;;;;;;;-4.20;78.50;;;;;;5020389;28;93859;-45
2022/01/28 08:48:43;;;;;;;;;;;-4.20;78.30;;;;;;5019631;28;94450;-44
2022/01/28 08:51:09;;;;;;;;;;;-4.10;77.90;;;;;;5020414;28;92174;-45
2022/01/28 08:53:36;;;;;;;;;;;-4.00;77.80;;;;;;5020825;28;94103;-45
2022/01/28 08:56:02;;;;;;;;;;;-4.00;78.00;;;;;;5019890;28;94798;-44
2022/01/28 08:58:27;;;;;;;;;;;-4.00;77.70;;;;;;5023284;28;92211;-45
2022/01/28 09:00:53;;;;;;;;;;;-4.10;77.80;;;;;;5019208;28;95649;-45
2022/01/28 09:03:19;;;;;;;;;;;-4.10;78.00;;;;;;5020087;28;91857;-45
2022/01/28 09:05:45;;;;;;;;;;;-4.00;77.90;;;;;;5020174;28;94363;-45
2022/01/28 09:08:11;;;;;;;;;;;-4.10;77.90;;;;;;5019515;28;94385;-45
2022/01/28 09:10:41;;;;;;;;;;;-4.20;78.20;;;;;;5020045;28;92265;-45
2022/01/28 09:15:40;;;;;;;;;;;-4.10;78.40;;;;;;5019781;28;93192;-45
2022/01/28 09:18:06;;;;;;;;;;;-4.20;78.30;;;;;;5020465;28;91416;-45
2022/01/28 09:20:33;;;;;;;;;;;-4.20;78.50;;;;;;5022664;28;92065;-45
2022/01/28 09:22:59;;;;;;;;;;;-4.20;79.20;;;;;;5019835;28;92170;-45
2022/01/28 09:25:25;;;;;;;;;;;-4.20;78.70;;;;;;5019275;28;93791;-45
2022/01/28 09:27:51;;;;;;;;;;;-4.30;78.90;;;;;;5019299;28;93343;-45
2022/01/28 09:30:16;;;;;;;;;;;-4.30;79.20;;;;;;5020136;28;92190;-45
2022/01/28 09:32:42;;;;;;;;;;;-4.30;79.10;;;;;;5019861;28;94335;-45
2022/01/28 09:35:08;;;;;;;;;;;-4.30;79.40;;;;;;5019248;28;94800;-45
2022/01/28 09:37:34;;;;;;;;;;;-4.20;78.90;;;;;;5019807;28;92194;-46
2022/01/28 09:39:59;;;;;;;;;;;-4.20;79.10;;;;;;5022253;28;94001;-46
2022/01/28 09:42:29;;;;;;;;;;;-4.30;79.20;;;;;;5019814;28;91502;-46
2022/01/28 09:44:54;;;;;;;;;;;-4.30;79.10;;;;;;5019731;28;93148;-45
2022/01/28 09:47:20;;;;;;;;;;;-4.30;79.40;;;;;;5018937;28;94013;-45
2022/01/28 09:49:47;;;;;;;;;;;-4.30;79.60;;;;;;5019096;28;93444;-46
2022/01/28 09:52:13;;;;;;;;;;;-4.30;79.50;;;;;;5019438;28;94939;-47
2022/01/28 09:54:43;;;;;;;;;;;-4.30;79.70;;;;;;5019015;28;94191;-46
2022/01/28 09:57:09;;;;;;;;;;;-4.30;79.60;;;;;;5051092;27;92109;-46
2022/01/28 09:59:35;;;;;;;;;;;-4.30;79.70;;;;;;5020606;28;93762;-46
2022/01/28 10:02:01;;;;;;;;;;;-4.30;79.70;;;;;;5025383;28;94713;-47
2022/01/28 10:04:26;;;;;;;;;;;-4.30;80.40;;;;;;5022855;28;94244;-45
2022/01/28 10:06:54;;;;;;;;;;;-4.30;80.00;;;;;;5022915;28;93847;-46
2022/01/28 10:09:19;;;;;;;;;;;-4.30;80.00;;;;;;5022928;28;92173;-47
2022/01/28 10:11:48;;;;;;;;;;;-4.30;80.10;;;;;;5022786;28;93708;-48
2022/01/28 10:14:23;;;;;;;;;;;-4.30;80.00;;;;;;5021641;28;95555;-46
2022/01/28 10:16:58;;;;;;;;;;;-4.30;80.10;;;;;;5023036;28;92016;-46
2022/01/28 10:19:25;;;;;;;;;;;-4.30;80.10;;;;;;5022606;28;94178;-46
2022/01/28 10:21:51;;;;;;;;;;;-4.30;80.20;;;;;;5022190;28;94671;-46
2022/01/28 10:24:18;;;;;;;;;;;-4.30;80.30;;;;;;5025624;28;92174;-45
2022/01/28 10:26:48;;;;;;;;;;;-4.30;80.20;;;;;;5022068;28;94534;-47
2022/01/28 10:29:16;;;;;;;;;;;-4.30;80.30;;;;;;5022999;28;91933;-46
2022/01/28 10:31:52;;;;;;;;;;;-4.30;80.40;;;;;;5022897;28;93740;-46
2022/01/28 10:34:18;;;;;;;;;;;-4.30;80.50;;;;;;5021831;28;94383;-46
2022/01/28 10:36:46;;;;;;;;;;;-4.30;80.50;;;;;;5021989;28;92058;-46
2022/01/28 10:39:19;;;;;;;;;;;-4.20;80.50;;;;;;5021950;28;94077;-46
2022/01/28 10:41:51;;;;;;;;;;;-4.20;80.50;;;;;;5021731;28;94498;-46
2022/01/28 10:44:17;;;;;;;;;;;-4.30;80.60;;;;;;5022643;28;91980;-46
2022/01/28 10:46:49;;;;;;;;;;;-4.30;80.70;;;;;;5024863;28;93714;-46
2022/01/28 10:49:14;;;;;;;;;;;-4.30;80.70;;;;;;5022209;28;92026;-47
2022/01/28 10:51:49;;;;;;;;;;;-4.20;80.70;;;;;;5022179;28;93362;-47
2022/01/28 10:54:19;;;;;;;;;;;-4.20;80.80;;;;;;5021613;28;94821;-46
2022/01/28 10:56:46;;;;;;;;;;;-4.20;80.90;;;;;;5022476;28;91440;-47
2022/01/28 10:59:13;;;;;;;;;;;-4.30;80.80;;;;;;5021973;28;93280;-46
2022/01/28 11:01:40;;;;;;;;;;;-4.30;80.90;;;;;;5021238;28;94718;-45
2022/01/28 11:04:05;;;;;;;;;;;-4.20;80.90;;;;;;5021689;28;93105;-46
2022/01/28 11:06:31;;;;;;;;;;;-4.20;81.10;;;;;;5020648;28;96268;-46
2022/01/28 11:08:56;;;;;;;;;;;-4.30;81.00;;;;;;5024550;28;94767;-48
2022/01/28 11:11:22;;;;;;;;;;;-4.20;81.00;;;;;;5020700;28;92652;-46
2022/01/28 11:13:48;;;;;;;;;;;-4.20;81.20;;;;;;5021634;28;94826;-46
2022/01/28 11:16:13;;;;;;;;;;;-4.20;81.20;;;;;;5021712;28;92195;-48
2022/01/28 11:18:39;;;;;;;;;;;-4.20;81.10;;;;;;5021778;28;92887;-47
2022/01/28 11:21:09;;;;;;;;;;;-4.20;81.10;;;;;;5021754;28;93667;-45
2022/01/28 11:23:40;;;;;;;;;;;-4.20;81.30;;;;;;5021947;28;92155;-46
2022/01/28 11:26:12;;;;;;;;;;;-4.20;81.40;;;;;;5021766;28;94105;-47
2022/01/28 11:28:42;;;;;;;;;;;-4.10;81.80;;;;;;5020428;28;95697;-46
2022/01/28 11:31:07;;;;;;;;;;;-4.10;81.70;;;;;;5024235;28;91850;-46
2022/01/28 11:33:47;;;;;;;;;;;-4.10;81.60;;;;;;5020995;28;94374;-46
2022/01/28 11:36:13;;;;;;;;;;;-4.10;81.80;;;;;;5021502;28;92126;-46
2022/01/28 11:38:43;;;;;;;;;;;-4.10;81.70;;;;;;5021422;28;94003;-45
2022/01/28 11:41:10;;;;;;;;;;;-4.00;81.70;;;;;;5020327;28;94307;-47
2022/01/28 11:43:50;;;;;;;;;;;-4.00;81.60;;;;;;5021231;28;91970;-48
2022/01/28 11:46:15;;;;;;;;;;;-4.00;81.50;;;;;;5021774;28;95142;-46
2022/01/28 11:48:54;;;;;;;;;;;-4.00;81.60;;;;;;5020755;28;94574;-47
2022/01/28 11:51:20;;;;;;;;;;;-4.00;81.60;;;;;;5024595;28;92170;-45
2022/01/28 11:53:56;;;;;;;;;;;-3.90;81.70;;;;;;5020105;28;95307;-46
2022/01/28 11:56:24;;;;;;;;;;;-3.80;81.20;;;;;;5021058;28;92159;-44
2022/01/28 11:58:53;;;;;;;;;;;-3.80;81.10;;;;;;5020950;28;93752;-47
2022/01/28 12:01:26;;;;;;;;;;;-3.70;81.10;;;;;;5019374;28;95914;-45
2022/01/28 12:04:11;;;;;;;;;;;-3.60;80.80;;;;;;5021203;28;92171;-45
2022/01/28 12:06:38;;;;;;;;;;;-3.60;80.70;;;;;;5023255;27;95290;-45
2022/01/28 12:09:05;;;;;;;;;;;-3.60;80.70;;;;;;5020624;28;94609;-45
2022/01/28 12:11:43;;;;;;;;;;;-3.50;80.60;;;;;;5021473;28;91453;-45
2022/01/28 12:14:12;;;;;;;;;;;-3.50;80.80;;;;;;5023549;28;93219;-45
2022/01/28 12:16:42;;;;;;;;;;;-3.50;80.60;;;;;;5020792;28;92151;-46
2022/01/28 12:19:15;;;;;;;;;;;-3.40;80.80;;;;;;5019989;28;93946;-45
2022/01/28 12:22:00;;;;;;;;;;;-3.40;80.90;;;;;;5019955;28;94616;-45
2022/01/28 12:24:26;;;;;;;;;;;-3.40;80.80;;;;;;5020680;28;92179;-45
2022/01/28 12:27:03;;;;;;;;;;;-3.40;81.00;;;;;;5020896;28;94025;-45
2022/01/28 12:29:30;;;;;;;;;;;-3.40;81.00;;;;;;5020394;28;92614;-46
2022/01/28 12:31:57;;;;;;;;;;;-3.40;80.90;;;;;;5020588;28;91931;-47
2022/01/28 12:34:23;;;;;;;;;;;-3.40;81.00;;;;;;5020514;28;93685;-45
2022/01/28 12:36:49;;;;;;;;;;;-3.40;81.10;;;;;;5023583;28;93523;-45
2022/01/28 12:39:32;;;;;;;;;;;-3.40;81.00;;;;;;5020534;28;93010;-45
2022/01/28 12:42:06;;;;;;;;;;;-3.30;81.20;;;;;;5019681;28;94582;-46
2022/01/28 12:44:32;;;;;;;;;;;-3.30;81.30;;;;;;5020043;28;92931;-44
2022/01/28 12:46:59;;;;;;;;;;;-3.40;80.70;;;;;;5020292;28;94610;-44
2022/01/28 12:49:28;;;;;;;;;;;-3.30;81.50;;;;;;5019827;28;94525;-44
2022/01/28 12:51:55;;;;;;;;;;;-3.30;81.60;;;;;;5020504;28;92112;-44
2022/01/28 12:54:35;;;;;;;;;;;-3.30;81.60;;;;;;5020350;28;94166;-47
2022/01/28 12:57:01;;;;;;;;;;;-3.30;81.60;;;;;;5019797;28;94602;-45
2022/01/28 12:59:26;;;;;;;;;;;-3.20;81.50;;;;;;5023511;28;92063;-45
2022/01/28 13:01:53;;;;;;;;;;;-3.20;81.60;;;;;;5019969;28;94059;-44
2022/01/28 13:04:21;;;;;;;;;;;-3.20;81.40;;;;;;5020324;28;92128;-44
2022/01/28 13:09:14;;;;;;;;;;;-3.20;81.60;;;;;;5019114;28;93946;-44
2022/01/28 13:11:50;;;;;;;;;;;-3.20;81.60;;;;;;5019836;28;92176;-44
2022/01/28 13:14:20;;;;;;;;;;;-3.10;81.80;;;;;;5020068;28;93834;-44
2022/01/28 13:16:46;;;;;;;;;;;-3.10;81.60;;;;;;5019545;28;94283;-45
2022/01/28 13:19:13;;;;;;;;;;;-3.10;81.80;;;;;;5019825;28;92176;-46
2022/01/28 13:21:40;;;;;;;;;;;-3.10;81.90;;;;;;5022563;28;93668;-44
2022/01/28 13:24:12;;;;;;;;;;;-3.10;82.00;;;;;;5019567;28;92194;-44
2022/01/28 13:26:56;;;;;;;;;;;-3.10;81.80;;;;;;5020283;28;93037;-43
2022/01/28 13:29:29;;;;;;;;;;;-3.10;82.20;;;;;;5019310;28;94478;-44
2022/01/28 13:31:58;;;;;;;;;;;-3.10;82.00;;;;;;5019747;28;92160;-43
2022/01/28 13:34:24;;;;;;;;;;;-3.10;82.00;;;;;;5019920;28;92984;-44
2022/01/28 13:36:52;;;;;;;;;;;-3.00;82.00;;;;;;5022691;28;94265;-44
2022/01/28 13:39:19;;;;;;;;;;;-3.00;81.90;;;;;;5023288;28;92216;-44
2022/01/28 13:41:47;;;;;;;;;;;-3.00;82.00;;;;;;5025501;28;93677;-44
2022/01/28 13:44:22;;;;;;;;;;;-3.00;82.20;;;;;;5023317;28;92170;-45
2022/01/28 13:46:58;;;;;;;;;;;-3.00;82.00;;;;;;5023359;28;94100;-44
2022/01/28 13:49:32;;;;;;;;;;;-3.00;82.20;;;;;;5022681;28;94310;-44
2022/01/28 13:52:24;;;;;;;;;;;-3.00;82.20;;;;;;5023840;28;91431;-44
2022/01/28 13:54:50;;;;;;;;;;;-2.90;82.20;;;;;;5023143;28;93089;-45
2022/01/28 13:57:16;;;;;;;;;;;-2.90;82.10;;;;;;5022530;28;94470;-45
2022/01/28 13:59:44;;;;;;;;;;;-2.90;82.40;;;;;;5022605;28;93092;-44
2022/01/28 14:02:14;;;;;;;;;;;-2.90;82.50;;;;;;5023045;28;95094;-44
2022/01/28 14:04:41;;;;;;;;;;;-3.00;82.90;;;;;;5025677;28;94387;-44
2022/01/28 14:07:07;;;;;;;;;;;-3.00;83.10;;;;;;5022970;28;93824;-44
2022/01/28 14:09:41;;;;;;;;;;;-3.00;83.70;;;;;;5022250;28;94228;-44
2022/01/28 14:12:08;;;;;;;;;;;-3.10;84.00;;;;;;5023012;28;92021;-44
2022/01/28 14:14:43;;;;;;;;;;;-3.10;84.10;;;;;;5023033;28;93936;-43
2022/01/28 14:17:12;;;;;;;;;;;-3.10;83.90;;;;;;5022817;28;94044;-44
2022/01/28 14:19:41;;;;;;;;;;;-3.10;84.30;;;;;;5022747;28;91954;-44
2022/01/28 14:22:08;;;;;;;;;;;-3.10;84.90;;;;;;5022581;28;93624;-44
2022/01/28 14:24:35;;;;;;;;;;;-3.10;84.80;;;;;;5021260;28;95491;-44
2022/01/28 14:32:15;;;;;;;;;;;-3.00;84.70;;;;;;5021476;28;91962;-44
2022/01/28 14:34:42;;;;;;;;;;;-3.00;85.00;;;;;;5022515;28;93925;-44
2022/01/28 14:37:08;;;;;;;;;;;-3.00;84.90;;;;;;5021672;28;94621;-44
2022/01/28 14:39:35;;;;;;;;;;;-3.00;84.80;;;;;;5022331;28;92334;-44
2022/01/28 14:42:03;;;;;;;;;;;-3.00;84.40;;;;;;5022526;28;93948;-44
2022/01/28 14:44:29;;;;;;;;;;;-2.90;84.70;;;;;;5021933;28;93851;-43
2022/01/28 14:46:55;;;;;;;;;;;-2.90;84.40;;;;;;5021945;28;92164;-44
2022/01/28 14:49:20;;;;;;;;;;;-2.90;84.50;;;;;;5024172;28;94132;-44
2022/01/28 14:51:52;;;;;;;;;;;-2.80;83.90;;;;;;5021898;28;92207;-44
2022/01/28 14:54:17;;;;;;;;;;;-2.80;84.50;;;;;;5022402;28;93944;-45
2022/01/28 14:56:43;;;;;;;;;;;-2.80;84.70;;;;;;5021844;28;93556;-44
2022/01/28 14:59:08;;;;;;;;;;;-2.80;84.80;;;;;;5022248;28;92225;-45
2022/01/28 15:01:34;;;;;;;;;;;-2.80;84.40;;;;;;5022083;28;93988;-45
2022/01/28 15:03:59;;;;;;;;;;;-2.80;84.20;;;;;;5021630;28;94754;-44
2022/01/28 15:06:26;;;;;;;;;;;-2.80;84.60;;;;;;5022313;28;91318;-44
2022/01/28 15:08:52;;;;;;;;;;;-2.80;84.40;;;;;;5022221;28;92138;-43
2022/01/28 15:11:31;;;;;;;;;;;-2.80;84.30;;;;;;5024631;28;94613;-44
2022/01/28 15:13:56;;;;;;;;;;;-2.70;84.30;;;;;;5021487;28;93738;-44
2022/01/28 15:16:22;;;;;;;;;;;-2.70;84.20;;;;;;5021509;28;94809;-44
2022/01/28 15:18:48;;;;;;;;;;;-2.60;84.30;;;;;;5021825;28;92108;-44
2022/01/28 15:21:14;;;;;;;;;;;-2.60;84.00;;;;;;5021483;28;93773;-44
2022/01/28 15:23:40;;;;;;;;;;;-2.60;84.40;;;;;;5021117;28;94840;-44
2022/01/28 15:26:06;;;;;;;;;;;-2.60;84.90;;;;;;5021505;28;92191;-44
2022/01/28 15:28:37;;;;;;;;;;;-2.60;84.40;;;;;;5021569;28;93544;-44
2022/01/28 15:36:31;;;;;;;;;;;-2.50;84.40;;;;;;5021412;28;92353;-44
2022/01/28 15:38:57;;;;;;;;;;;-2.50;84.10;;;;;;5020864;28;93132;-44
2022/01/28 15:41:22;;;;;;;;;;;-2.40;84.10;;;;;;5020917;28;93587;-44
2022/01/28 15:43:48;;;;;;;;;;;-2.40;83.80;;;;;;5021178;28;93230;-44